sensor_id;sensor_type;location;lat;lon;timestamp;P1;durP1;ratioP1;P2;durP2;ratioP2
70953;SDS011;58618;47.490;8.736;2022-07-17T00:00:14;3.97;;;2.50;;
70953;SDS011;58618;47.490;8.736;2022-07-17T00:03:02;2.90;;;2.60;;
70953;SDS011;58618;47.490;8.736;2022-07-17T00:05:51;6.43;;;3.05;;
70953;SDS011;58618;47.490;8.736;2022-07-17T00:08:38;3.97;;;2.55;;
70953;SDS011;58618;47.490;8.736;2022-07-17T00:11:26;3.55;;;2.28;;
70953;SDS011;58618;47.490;8.736;2022-07-17T00:14:13;4.28;;;2.60;;
70953;SDS011;58618;47.490;8.736;2022-07-17T00:17:00;5.30;;;2.50;;
70953;SDS011;58618;47.490;8.736;2022-07-17T00:19:48;4.30;;;2.65;;
70953;SDS011;58618;47.490;8.736;2022-07-17T00:22:37;4.57;;;2.42;;
70953;SDS011;58618;47.490;8.736;2022-07-17T00:25:24;5.03;;;2.65;;
70953;SDS011;58618;47.490;8.736;2022-07-17T00:28:12;4.53;;;2.88;;
70953;SDS011;58618;47.490;8.736;2022-07-17T00:31:00;5.37;;;2.57;;
70953;SDS011;58618;47.490;8.736;2022-07-17T00:33:47;3.42;;;2.72;;
70953;SDS011;58618;47.490;8.736;2022-07-17T00:36:34;3.90;;;2.90;;
70953;SDS011;58618;47.490;8.736;2022-07-17T00:39:23;8.95;;;3.22;;
70953;SDS011;58618;47.490;8.736;2022-07-17T00:42:11;3.75;;;2.70;;
70953;SDS011;58618;47.490;8.736;2022-07-17T00:44:59;3.87;;;2.87;;
70953;SDS011;58618;47.490;8.736;2022-07-17T00:47:48;4.38;;;3.00;;
70953;SDS011;58618;47.490;8.736;2022-07-17T00:50:38;5.32;;;3.05;;
70953;SDS011;58618;47.490;8.736;2022-07-17T00:53:26;3.28;;;2.50;;
70953;SDS011;58618;47.490;8.736;2022-07-17T00:56:16;4.15;;;3.00;;
70953;SDS011;58618;47.490;8.736;2022-07-17T00:59:04;3.37;;;2.63;;
70953;SDS011;58618;47.490;8.736;2022-07-17T01:01:53;3.67;;;2.60;;
70953;SDS011;58618;47.490;8.736;2022-07-17T01:04:40;5.15;;;2.70;;
70953;SDS011;58618;47.490;8.736;2022-07-17T01:07:28;3.47;;;2.70;;
70953;SDS011;58618;47.490;8.736;2022-07-17T01:10:16;4.90;;;2.72;;
70953;SDS011;58618;47.490;8.736;2022-07-17T01:13:05;5.47;;;3.17;;
70953;SDS011;58618;47.490;8.736;2022-07-17T01:15:53;5.25;;;2.92;;
70953;SDS011;58618;47.490;8.736;2022-07-17T01:18:41;5.10;;;2.90;;
70953;SDS011;58618;47.490;8.736;2022-07-17T01:21:37;5.45;;;2.88;;
70953;SDS011;58618;47.490;8.736;2022-07-17T01:24:25;5.18;;;3.40;;
70953;SDS011;58618;47.490;8.736;2022-07-17T01:27:12;5.57;;;3.10;;
70953;SDS011;58618;47.490;8.736;2022-07-17T01:30:00;3.95;;;3.05;;
70953;SDS011;58618;47.490;8.736;2022-07-17T01:32:47;4.95;;;2.88;;
70953;SDS011;58618;47.490;8.736;2022-07-17T01:35:34;7.95;;;3.50;;
70953;SDS011;58618;47.490;8.736;2022-07-17T01:38:23;4.30;;;2.92;;
70953;SDS011;58618;47.490;8.736;2022-07-17T01:41:11;3.17;;;2.80;;
70953;SDS011;58618;47.490;8.736;2022-07-17T01:43:58;5.72;;;3.22;;
70953;SDS011;58618;47.490;8.736;2022-07-17T01:46:45;4.63;;;3.10;;
70953;SDS011;58618;47.490;8.736;2022-07-17T01:49:33;4.35;;;2.97;;
70953;SDS011;58618;47.490;8.736;2022-07-17T01:52:20;6.45;;;3.35;;
70953;SDS011;58618;47.490;8.736;2022-07-17T01:55:11;6.03;;;3.03;;
70953;SDS011;58618;47.490;8.736;2022-07-17T01:57:59;5.65;;;3.35;;
70953;SDS011;58618;47.490;8.736;2022-07-17T02:00:46;5.47;;;3.25;;
70953;SDS011;58618;47.490;8.736;2022-07-17T02:03:34;5.20;;;2.90;;
70953;SDS011;58618;47.490;8.736;2022-07-17T02:06:21;4.97;;;3.20;;
70953;SDS011;58618;47.490;8.736;2022-07-17T02:09:08;3.67;;;2.90;;
70953;SDS011;58618;47.490;8.736;2022-07-17T02:11:57;6.88;;;3.83;;
70953;SDS011;58618;47.490;8.736;2022-07-17T02:14:44;6.78;;;3.42;;
70953;SDS011;58618;47.490;8.736;2022-07-17T02:17:32;7.20;;;3.15;;
70953;SDS011;58618;47.490;8.736;2022-07-17T02:20:19;5.10;;;3.45;;
70953;SDS011;58618;47.490;8.736;2022-07-17T02:23:07;4.40;;;3.23;;
70953;SDS011;58618;47.490;8.736;2022-07-17T02:25:55;4.10;;;3.13;;
70953;SDS011;58618;47.490;8.736;2022-07-17T02:28:44;4.97;;;3.33;;
70953;SDS011;58618;47.490;8.736;2022-07-17T02:31:31;4.50;;;3.30;;
70953;SDS011;58618;47.490;8.736;2022-07-17T02:34:19;5.13;;;3.40;;
70953;SDS011;58618;47.490;8.736;2022-07-17T02:37:06;3.77;;;3.23;;
70953;SDS011;58618;47.490;8.736;2022-07-17T02:39:53;4.63;;;3.00;;
70953;SDS011;58618;47.490;8.736;2022-07-17T02:42:41;4.40;;;3.22;;
70953;SDS011;58618;47.490;8.736;2022-07-17T02:45:29;4.82;;;3.05;;
70953;SDS011;58618;47.490;8.736;2022-07-17T02:48:17;7.85;;;3.38;;
70953;SDS011;58618;47.490;8.736;2022-07-17T02:51:04;7.57;;;3.20;;
70953;SDS011;58618;47.490;8.736;2022-07-17T02:53:52;4.97;;;3.25;;
70953;SDS011;58618;47.490;8.736;2022-07-17T02:56:39;4.72;;;3.05;;
70953;SDS011;58618;47.490;8.736;2022-07-17T02:59:26;4.22;;;3.20;;
70953;SDS011;58618;47.490;8.736;2022-07-17T03:02:15;4.78;;;3.33;;
70953;SDS011;58618;47.490;8.736;2022-07-17T03:05:04;4.90;;;3.10;;
70953;SDS011;58618;47.490;8.736;2022-07-17T03:07:51;5.28;;;3.35;;
70953;SDS011;58618;47.490;8.736;2022-07-17T03:10:39;4.80;;;3.30;;
70953;SDS011;58618;47.490;8.736;2022-07-17T03:13:26;7.38;;;3.30;;
70953;SDS011;58618;47.490;8.736;2022-07-17T03:16:14;5.10;;;3.20;;
70953;SDS011;58618;47.490;8.736;2022-07-17T03:19:02;4.33;;;3.13;;
70953;SDS011;58618;47.490;8.736;2022-07-17T03:21:50;5.47;;;3.45;;
70953;SDS011;58618;47.490;8.736;2022-07-17T03:24:37;6.85;;;3.53;;
70953;SDS011;58618;47.490;8.736;2022-07-17T03:27:24;5.05;;;3.67;;
70953;SDS011;58618;47.490;8.736;2022-07-17T03:30:11;5.78;;;4.00;;
70953;SDS011;58618;47.490;8.736;2022-07-17T03:32:59;7.13;;;3.47;;
70953;SDS011;58618;47.490;8.736;2022-07-17T03:35:48;4.65;;;3.42;;
70953;SDS011;58618;47.490;8.736;2022-07-17T03:38:35;6.75;;;3.38;;
70953;SDS011;58618;47.490;8.736;2022-07-17T03:41:22;4.32;;;3.15;;
70953;SDS011;58618;47.490;8.736;2022-07-17T03:44:10;8.52;;;3.60;;
70953;SDS011;58618;47.490;8.736;2022-07-17T03:46:57;6.90;;;3.43;;
70953;SDS011;58618;47.490;8.736;2022-07-17T03:49:44;7.60;;;3.85;;
70953;SDS011;58618;47.490;8.736;2022-07-17T03:52:33;4.25;;;3.70;;
70953;SDS011;58618;47.490;8.736;2022-07-17T03:55:20;4.97;;;3.55;;
70953;SDS011;58618;47.490;8.736;2022-07-17T03:58:07;7.55;;;3.95;;
70953;SDS011;58618;47.490;8.736;2022-07-17T04:00:55;6.10;;;3.70;;
70953;SDS011;58618;47.490;8.736;2022-07-17T04:03:42;4.25;;;3.10;;
70953;SDS011;58618;47.490;8.736;2022-07-17T04:06:29;4.80;;;3.92;;
70953;SDS011;58618;47.490;8.736;2022-07-17T04:09:18;5.22;;;3.47;;
70953;SDS011;58618;47.490;8.736;2022-07-17T04:12:05;4.68;;;3.35;;
70953;SDS011;58618;47.490;8.736;2022-07-17T04:14:53;4.80;;;3.33;;
70953;SDS011;58618;47.490;8.736;2022-07-17T04:17:40;5.63;;;3.90;;
70953;SDS011;58618;47.490;8.736;2022-07-17T04:20:28;4.43;;;3.45;;
70953;SDS011;58618;47.490;8.736;2022-07-17T04:23:15;4.07;;;3.20;;
70953;SDS011;58618;47.490;8.736;2022-07-17T04:26:05;6.65;;;3.45;;
70953;SDS011;58618;47.490;8.736;2022-07-17T04:28:53;4.10;;;3.53;;
70953;SDS011;58618;47.490;8.736;2022-07-17T04:31:40;5.90;;;3.55;;
70953;SDS011;58618;47.490;8.736;2022-07-17T04:34:28;6.63;;;3.50;;
70953;SDS011;58618;47.490;8.736;2022-07-17T04:37:15;3.92;;;2.90;;
70953;SDS011;58618;47.490;8.736;2022-07-17T04:40:02;8.52;;;3.40;;
70953;SDS011;58618;47.490;8.736;2022-07-17T04:42:52;4.27;;;3.10;;
70953;SDS011;58618;47.490;8.736;2022-07-17T04:45:39;3.50;;;2.80;;
70953;SDS011;58618;47.490;8.736;2022-07-17T04:48:26;4.22;;;2.90;;
70953;SDS011;58618;47.490;8.736;2022-07-17T04:51:14;3.03;;;2.63;;
70953;SDS011;58618;47.490;8.736;2022-07-17T04:54:01;3.35;;;2.60;;
70953;SDS011;58618;47.490;8.736;2022-07-17T04:56:48;5.17;;;2.87;;
70953;SDS011;58618;47.490;8.736;2022-07-17T04:59:37;2.85;;;2.55;;
70953;SDS011;58618;47.490;8.736;2022-07-17T05:02:24;5.90;;;3.03;;
70953;SDS011;58618;47.490;8.736;2022-07-17T05:05:12;3.20;;;2.67;;
70953;SDS011;58618;47.490;8.736;2022-07-17T05:07:59;3.00;;;2.70;;
70953;SDS011;58618;47.490;8.736;2022-07-17T05:10:46;3.53;;;2.80;;
70953;SDS011;58618;47.490;8.736;2022-07-17T05:13:34;5.75;;;3.13;;
70953;SDS011;58618;47.490;8.736;2022-07-17T05:16:23;5.43;;;3.00;;
70953;SDS011;58618;47.490;8.736;2022-07-17T05:19:10;4.20;;;2.95;;
70953;SDS011;58618;47.490;8.736;2022-07-17T05:21:57;5.28;;;3.00;;
70953;SDS011;58618;47.490;8.736;2022-07-17T05:24:45;3.10;;;2.53;;
70953;SDS011;58618;47.490;8.736;2022-07-17T05:27:32;4.30;;;3.00;;
70953;SDS011;58618;47.490;8.736;2022-07-17T05:30:19;4.95;;;3.20;;
70953;SDS011;58618;47.490;8.736;2022-07-17T05:33:08;3.17;;;2.80;;
70953;SDS011;58618;47.490;8.736;2022-07-17T05:35:55;4.80;;;2.60;;
70953;SDS011;58618;47.490;8.736;2022-07-17T05:38:43;4.90;;;2.57;;
70953;SDS011;58618;47.490;8.736;2022-07-17T05:41:30;6.65;;;3.05;;
70953;SDS011;58618;47.490;8.736;2022-07-17T05:44:18;5.18;;;2.95;;
70953;SDS011;58618;47.490;8.736;2022-07-17T05:47:05;4.18;;;2.90;;
70953;SDS011;58618;47.490;8.736;2022-07-17T05:49:54;4.40;;;2.80;;
70953;SDS011;58618;47.490;8.736;2022-07-17T05:52:41;4.10;;;2.70;;
70953;SDS011;58618;47.490;8.736;2022-07-17T05:55:28;4.57;;;2.50;;
70953;SDS011;58618;47.490;8.736;2022-07-17T05:58:16;3.78;;;2.72;;
70953;SDS011;58618;47.490;8.736;2022-07-17T06:01:03;4.78;;;2.80;;
70953;SDS011;58618;47.490;8.736;2022-07-17T06:03:50;3.65;;;2.85;;
70953;SDS011;58618;47.490;8.736;2022-07-17T06:06:39;4.60;;;2.90;;
70953;SDS011;58618;47.490;8.736;2022-07-17T06:09:26;4.50;;;2.58;;
70953;SDS011;58618;47.490;8.736;2022-07-17T06:12:14;3.90;;;2.90;;
70953;SDS011;58618;47.490;8.736;2022-07-17T06:15:01;6.13;;;2.90;;
70953;SDS011;58618;47.490;8.736;2022-07-17T06:17:49;4.13;;;2.70;;
70953;SDS011;58618;47.490;8.736;2022-07-17T06:20:37;5.83;;;2.90;;
70953;SDS011;58618;47.490;8.736;2022-07-17T06:23:25;3.45;;;2.65;;
70953;SDS011;58618;47.490;8.736;2022-07-17T06:26:13;7.28;;;2.88;;
70953;SDS011;58618;47.490;8.736;2022-07-17T06:29:00;4.07;;;2.75;;
70953;SDS011;58618;47.490;8.736;2022-07-17T06:31:47;7.55;;;2.90;;
70953;SDS011;58618;47.490;8.736;2022-07-17T06:34:35;4.73;;;2.57;;
70953;SDS011;58618;47.490;8.736;2022-07-17T06:37:22;3.92;;;2.65;;
70953;SDS011;58618;47.490;8.736;2022-07-17T06:40:11;4.03;;;2.80;;
70953;SDS011;58618;47.490;8.736;2022-07-17T06:42:59;4.40;;;2.70;;
70953;SDS011;58618;47.490;8.736;2022-07-17T06:45:46;5.28;;;2.97;;
70953;SDS011;58618;47.490;8.736;2022-07-17T06:48:34;5.23;;;2.60;;
70953;SDS011;58618;47.490;8.736;2022-07-17T06:51:21;4.47;;;2.88;;
70953;SDS011;58618;47.490;8.736;2022-07-17T06:54:08;5.43;;;2.90;;
70953;SDS011;58618;47.490;8.736;2022-07-17T06:56:58;3.17;;;2.70;;
70953;SDS011;58618;47.490;8.736;2022-07-17T06:59:45;5.25;;;3.30;;
70953;SDS011;58618;47.490;8.736;2022-07-17T07:02:32;2.60;;;2.40;;
70953;SDS011;58618;47.490;8.736;2022-07-17T07:05:20;5.55;;;2.80;;
70953;SDS011;58618;47.490;8.736;2022-07-17T07:08:07;5.25;;;2.92;;
70953;SDS011;58618;47.490;8.736;2022-07-17T07:10:55;5.18;;;2.85;;
70953;SDS011;58618;47.490;8.736;2022-07-17T07:13:44;5.30;;;2.50;;
70953;SDS011;58618;47.490;8.736;2022-07-17T07:16:31;6.60;;;2.77;;
70953;SDS011;58618;47.490;8.736;2022-07-17T07:19:18;3.65;;;2.80;;
70953;SDS011;58618;47.490;8.736;2022-07-17T07:22:06;5.70;;;2.90;;
70953;SDS011;58618;47.490;8.736;2022-07-17T07:24:53;5.20;;;2.63;;
70953;SDS011;58618;47.490;8.736;2022-07-17T07:27:40;4.55;;;3.00;;
70953;SDS011;58618;47.490;8.736;2022-07-17T07:30:29;4.10;;;2.80;;
70953;SDS011;58618;47.490;8.736;2022-07-17T07:33:16;3.55;;;2.65;;
70953;SDS011;58618;47.490;8.736;2022-07-17T07:36:04;4.50;;;2.83;;
70953;SDS011;58618;47.490;8.736;2022-07-17T07:38:52;6.68;;;2.65;;
70953;SDS011;58618;47.490;8.736;2022-07-17T07:41:39;4.82;;;2.83;;
70953;SDS011;58618;47.490;8.736;2022-07-17T07:44:27;4.83;;;2.80;;
70953;SDS011;58618;47.490;8.736;2022-07-17T07:47:16;4.38;;;2.67;;
70953;SDS011;58618;47.490;8.736;2022-07-17T07:50:03;4.85;;;2.63;;
70953;SDS011;58618;47.490;8.736;2022-07-17T07:52:52;7.32;;;2.80;;
70953;SDS011;58618;47.490;8.736;2022-07-17T07:55:39;4.43;;;2.60;;
70953;SDS011;58618;47.490;8.736;2022-07-17T07:58:26;5.30;;;3.00;;
70953;SDS011;58618;47.490;8.736;2022-07-17T08:01:14;3.22;;;2.50;;
70953;SDS011;58618;47.490;8.736;2022-07-17T08:04:02;4.93;;;2.70;;
70953;SDS011;58618;47.490;8.736;2022-07-17T08:06:50;6.70;;;2.90;;
70953;SDS011;58618;47.490;8.736;2022-07-17T08:09:38;4.95;;;2.88;;
70953;SDS011;58618;47.490;8.736;2022-07-17T08:12:25;5.83;;;2.50;;
70953;SDS011;58618;47.490;8.736;2022-07-17T08:15:12;4.75;;;2.70;;
70953;SDS011;58618;47.490;8.736;2022-07-17T08:18:00;3.70;;;2.63;;
70953;SDS011;58618;47.490;8.736;2022-07-17T08:20:49;5.95;;;2.80;;
70953;SDS011;58618;47.490;8.736;2022-07-17T08:23:36;4.50;;;2.50;;
70953;SDS011;58618;47.490;8.736;2022-07-17T08:26:24;3.83;;;2.70;;
70953;SDS011;58618;47.490;8.736;2022-07-17T08:29:11;4.38;;;2.65;;
70953;SDS011;58618;47.490;8.736;2022-07-17T08:31:58;4.65;;;2.67;;
70953;SDS011;58618;47.490;8.736;2022-07-17T08:34:46;5.68;;;2.42;;
70953;SDS011;58618;47.490;8.736;2022-07-17T08:37:43;5.10;;;2.95;;
70953;SDS011;58618;47.490;8.736;2022-07-17T08:40:32;3.97;;;2.80;;
70953;SDS011;58618;47.490;8.736;2022-07-17T08:43:21;3.90;;;2.60;;
70953;SDS011;58618;47.490;8.736;2022-07-17T08:46:09;3.78;;;2.70;;
70953;SDS011;58618;47.490;8.736;2022-07-17T08:48:57;4.28;;;2.50;;
70953;SDS011;58618;47.490;8.736;2022-07-17T08:51:45;6.22;;;2.88;;
70953;SDS011;58618;47.490;8.736;2022-07-17T08:54:35;5.13;;;2.50;;
70953;SDS011;58618;47.490;8.736;2022-07-17T08:57:22;3.67;;;2.50;;
70953;SDS011;58618;47.490;8.736;2022-07-17T09:00:10;4.70;;;2.95;;
70953;SDS011;58618;47.490;8.736;2022-07-17T09:03:00;5.50;;;2.60;;
70953;SDS011;58618;47.490;8.736;2022-07-17T09:05:49;3.78;;;2.08;;
70953;SDS011;58618;47.490;8.736;2022-07-17T09:08:36;4.93;;;2.50;;
70953;SDS011;58618;47.490;8.736;2022-07-17T09:11:25;5.80;;;2.42;;
70953;SDS011;58618;47.490;8.736;2022-07-17T09:14:14;4.57;;;2.28;;
70953;SDS011;58618;47.490;8.736;2022-07-17T09:17:03;5.32;;;2.72;;
70953;SDS011;58618;47.490;8.736;2022-07-17T09:19:50;4.55;;;2.40;;
70953;SDS011;58618;47.490;8.736;2022-07-17T09:22:38;4.53;;;2.53;;
70953;SDS011;58618;47.490;8.736;2022-07-17T09:25:32;3.47;;;2.38;;
70953;SDS011;58618;47.490;8.736;2022-07-17T09:28:23;3.58;;;2.13;;
70953;SDS011;58618;47.490;8.736;2022-07-17T09:31:11;4.25;;;2.40;;
70953;SDS011;58618;47.490;8.736;2022-07-17T09:34:00;2.92;;;2.30;;
70953;SDS011;58618;47.490;8.736;2022-07-17T09:36:57;2.93;;;2.30;;
70953;SDS011;58618;47.490;8.736;2022-07-17T09:39:45;4.53;;;2.17;;
70953;SDS011;58618;47.490;8.736;2022-07-17T09:42:34;4.22;;;2.17;;
70953;SDS011;58618;47.490;8.736;2022-07-17T09:45:24;5.70;;;2.38;;
70953;SDS011;58618;47.490;8.736;2022-07-17T09:48:11;4.93;;;2.20;;
70953;SDS011;58618;47.490;8.736;2022-07-17T09:50:59;4.20;;;2.10;;
70953;SDS011;58618;47.490;8.736;2022-07-17T09:53:50;5.50;;;2.22;;
70953;SDS011;58618;47.490;8.736;2022-07-17T09:56:39;6.15;;;2.25;;
70953;SDS011;58618;47.490;8.736;2022-07-17T09:59:27;4.03;;;2.20;;
70953;SDS011;58618;47.490;8.736;2022-07-17T10:02:22;3.03;;;2.10;;
70953;SDS011;58618;47.490;8.736;2022-07-17T10:05:11;4.17;;;2.10;;
70953;SDS011;58618;47.490;8.736;2022-07-17T10:08:01;3.92;;;2.28;;
70953;SDS011;58618;47.490;8.736;2022-07-17T10:10:49;3.78;;;2.67;;
70953;SDS011;58618;47.490;8.736;2022-07-17T10:13:38;3.35;;;2.20;;
70953;SDS011;58618;47.490;8.736;2022-07-17T10:16:28;7.28;;;2.78;;
70953;SDS011;58618;47.490;8.736;2022-07-17T10:19:19;3.80;;;2.13;;
70953;SDS011;58618;47.490;8.736;2022-07-17T10:22:07;6.38;;;2.38;;
70953;SDS011;58618;47.490;8.736;2022-07-17T10:24:55;4.80;;;2.08;;
70953;SDS011;58618;47.490;8.736;2022-07-17T10:27:47;5.68;;;2.53;;
70953;SDS011;58618;47.490;8.736;2022-07-17T10:30:40;3.38;;;2.63;;
70953;SDS011;58618;47.490;8.736;2022-07-17T10:33:28;4.57;;;2.30;;
70953;SDS011;58618;47.490;8.736;2022-07-17T10:36:17;3.30;;;2.30;;
70953;SDS011;58618;47.490;8.736;2022-07-17T10:39:11;5.45;;;2.50;;
70953;SDS011;58618;47.490;8.736;2022-07-17T10:42:00;3.72;;;2.05;;
70953;SDS011;58618;47.490;8.736;2022-07-17T10:44:48;4.00;;;2.58;;
70953;SDS011;58618;47.490;8.736;2022-07-17T10:47:46;3.77;;;2.10;;
70953;SDS011;58618;47.490;8.736;2022-07-17T10:50:36;3.20;;;2.15;;
70953;SDS011;58618;47.490;8.736;2022-07-17T10:53:29;4.20;;;2.25;;
70953;SDS011;58618;47.490;8.736;2022-07-17T10:56:17;7.00;;;3.00;;
70953;SDS011;58618;47.490;8.736;2022-07-17T10:59:05;4.65;;;2.55;;
70953;SDS011;58618;47.490;8.736;2022-07-17T11:01:55;3.50;;;2.30;;
70953;SDS011;58618;47.490;8.736;2022-07-17T11:04:43;6.13;;;2.50;;
70953;SDS011;58618;47.490;8.736;2022-07-17T11:07:30;4.47;;;2.70;;
70953;SDS011;58618;47.490;8.736;2022-07-17T11:10:19;3.40;;;2.35;;
70953;SDS011;58618;47.490;8.736;2022-07-17T11:13:08;3.58;;;2.40;;
70953;SDS011;58618;47.490;8.736;2022-07-17T11:15:57;5.03;;;2.60;;
70953;SDS011;58618;47.490;8.736;2022-07-17T11:18:45;3.78;;;2.47;;
70953;SDS011;58618;47.490;8.736;2022-07-17T11:21:44;5.35;;;2.78;;
70953;SDS011;58618;47.490;8.736;2022-07-17T11:24:35;6.13;;;2.22;;
70953;SDS011;58618;47.490;8.736;2022-07-17T11:27:25;3.88;;;2.72;;
70953;SDS011;58618;47.490;8.736;2022-07-17T11:30:14;3.83;;;2.33;;
70953;SDS011;58618;47.490;8.736;2022-07-17T11:33:01;4.47;;;2.72;;
70953;SDS011;58618;47.490;8.736;2022-07-17T11:35:49;6.55;;;2.70;;
70953;SDS011;58618;47.490;8.736;2022-07-17T11:38:36;4.68;;;2.55;;
70953;SDS011;58618;47.490;8.736;2022-07-17T11:41:33;4.82;;;2.70;;
70953;SDS011;58618;47.490;8.736;2022-07-17T11:44:24;4.17;;;2.60;;
70953;SDS011;58618;47.490;8.736;2022-07-17T11:47:12;7.13;;;3.88;;
70953;SDS011;58618;47.490;8.736;2022-07-17T11:50:09;3.15;;;2.50;;
70953;SDS011;58618;47.490;8.736;2022-07-17T11:53:00;7.80;;;2.97;;
70953;SDS011;58618;47.490;8.736;2022-07-17T11:55:48;6.30;;;2.78;;
70953;SDS011;58618;47.490;8.736;2022-07-17T11:58:43;4.10;;;3.20;;
70953;SDS011;58618;47.490;8.736;2022-07-17T12:01:39;6.55;;;3.72;;
70953;SDS011;58618;47.490;8.736;2022-07-17T12:04:28;9.38;;;6.22;;
70953;SDS011;58618;47.490;8.736;2022-07-17T12:07:15;5.78;;;4.22;;
70953;SDS011;58618;47.490;8.736;2022-07-17T12:10:10;5.25;;;2.75;;
70953;SDS011;58618;47.490;8.736;2022-07-17T12:12:59;5.23;;;3.57;;
70953;SDS011;58618;47.490;8.736;2022-07-17T12:15:50;5.18;;;3.03;;
70953;SDS011;58618;47.490;8.736;2022-07-17T12:18:40;5.50;;;3.55;;
70953;SDS011;58618;47.490;8.736;2022-07-17T12:21:28;4.10;;;3.15;;
70953;SDS011;58618;47.490;8.736;2022-07-17T12:24:18;9.05;;;6.13;;
70953;SDS011;58618;47.490;8.736;2022-07-17T12:27:12;5.00;;;2.80;;
70953;SDS011;58618;47.490;8.736;2022-07-17T12:30:01;6.15;;;2.65;;
70953;SDS011;58618;47.490;8.736;2022-07-17T12:32:49;5.95;;;3.25;;
70953;SDS011;58618;47.490;8.736;2022-07-17T12:35:38;8.40;;;2.90;;
70953;SDS011;58618;47.490;8.736;2022-07-17T12:38:26;3.05;;;2.50;;
70953;SDS011;58618;47.490;8.736;2022-07-17T12:41:13;3.07;;;2.50;;
70953;SDS011;58618;47.490;8.736;2022-07-17T12:44:00;4.28;;;2.67;;
70953;SDS011;58618;47.490;8.736;2022-07-17T12:46:48;5.80;;;2.90;;
70953;SDS011;58618;47.490;8.736;2022-07-17T12:49:36;3.78;;;2.40;;
70953;SDS011;58618;47.490;8.736;2022-07-17T12:52:26;3.20;;;2.60;;
70953;SDS011;58618;47.490;8.736;2022-07-17T12:55:13;4.13;;;2.40;;
70953;SDS011;58618;47.490;8.736;2022-07-17T12:58:01;5.72;;;2.75;;
70953;SDS011;58618;47.490;8.736;2022-07-17T13:00:48;5.03;;;3.40;;
70953;SDS011;58618;47.490;8.736;2022-07-17T13:03:36;4.45;;;2.90;;
70953;SDS011;58618;47.490;8.736;2022-07-17T13:06:23;3.92;;;2.65;;
70953;SDS011;58618;47.490;8.736;2022-07-17T13:09:12;4.10;;;2.60;;
70953;SDS011;58618;47.490;8.736;2022-07-17T13:11:59;2.85;;;2.40;;
70953;SDS011;58618;47.490;8.736;2022-07-17T13:14:47;3.22;;;2.33;;
70953;SDS011;58618;47.490;8.736;2022-07-17T13:17:34;4.00;;;2.80;;
70953;SDS011;58618;47.490;8.736;2022-07-17T13:20:23;3.42;;;2.60;;
70953;SDS011;58618;47.490;8.736;2022-07-17T13:23:10;3.97;;;2.37;;
70953;SDS011;58618;47.490;8.736;2022-07-17T13:25:59;3.67;;;2.63;;
70953;SDS011;58618;47.490;8.736;2022-07-17T13:28:47;3.70;;;2.53;;
70953;SDS011;58618;47.490;8.736;2022-07-17T13:31:35;4.78;;;2.20;;
70953;SDS011;58618;47.490;8.736;2022-07-17T13:34:22;6.72;;;2.50;;
70953;SDS011;58618;47.490;8.736;2022-07-17T13:37:10;3.90;;;2.43;;
70953;SDS011;58618;47.490;8.736;2022-07-17T13:39:57;4.15;;;2.58;;
70953;SDS011;58618;47.490;8.736;2022-07-17T13:42:46;4.03;;;2.40;;
70953;SDS011;58618;47.490;8.736;2022-07-17T13:45:33;4.43;;;2.50;;
70953;SDS011;58618;47.490;8.736;2022-07-17T13:48:21;3.97;;;2.60;;
70953;SDS011;58618;47.490;8.736;2022-07-17T13:51:08;3.47;;;2.60;;
70953;SDS011;58618;47.490;8.736;2022-07-17T13:53:55;5.18;;;2.40;;
70953;SDS011;58618;47.490;8.736;2022-07-17T13:56:43;5.28;;;2.55;;
70953;SDS011;58618;47.490;8.736;2022-07-17T13:59:32;7.10;;;2.72;;
70953;SDS011;58618;47.490;8.736;2022-07-17T14:02:19;5.35;;;2.80;;
70953;SDS011;58618;47.490;8.736;2022-07-17T14:05:08;3.90;;;2.40;;
70953;SDS011;58618;47.490;8.736;2022-07-17T14:07:55;8.73;;;2.53;;
70953;SDS011;58618;47.490;8.736;2022-07-17T14:10:43;3.35;;;2.33;;
70953;SDS011;58618;47.490;8.736;2022-07-17T14:13:30;3.95;;;2.50;;
70953;SDS011;58618;47.490;8.736;2022-07-17T14:16:19;3.20;;;2.65;;
70953;SDS011;58618;47.490;8.736;2022-07-17T14:19:06;3.87;;;2.50;;
70953;SDS011;58618;47.490;8.736;2022-07-17T14:21:54;3.55;;;2.22;;
70953;SDS011;58618;47.490;8.736;2022-07-17T14:24:41;4.25;;;2.63;;
70953;SDS011;58618;47.490;8.736;2022-07-17T14:27:28;5.05;;;2.78;;
70953;SDS011;58618;47.490;8.736;2022-07-17T14:30:16;2.97;;;2.40;;
70953;SDS011;58618;47.490;8.736;2022-07-17T14:33:05;2.80;;;2.50;;
70953;SDS011;58618;47.490;8.736;2022-07-17T14:35:52;2.88;;;2.13;;
70953;SDS011;58618;47.490;8.736;2022-07-17T14:38:40;2.88;;;2.47;;
70953;SDS011;58618;47.490;8.736;2022-07-17T14:41:27;3.20;;;2.58;;
70953;SDS011;58618;47.490;8.736;2022-07-17T14:44:14;6.57;;;2.40;;
70953;SDS011;58618;47.490;8.736;2022-07-17T14:47:02;5.07;;;2.20;;
70953;SDS011;58618;47.490;8.736;2022-07-17T14:49:50;3.13;;;2.40;;
70953;SDS011;58618;47.490;8.736;2022-07-17T14:52:38;3.15;;;2.40;;
70953;SDS011;58618;47.490;8.736;2022-07-17T14:55:25;3.25;;;2.45;;
70953;SDS011;58618;47.490;8.736;2022-07-17T14:58:12;6.55;;;2.45;;
70953;SDS011;58618;47.490;8.736;2022-07-17T15:00:59;3.33;;;2.37;;
70953;SDS011;58618;47.490;8.736;2022-07-17T15:03:47;3.28;;;2.17;;
70953;SDS011;58618;47.490;8.736;2022-07-17T15:06:38;3.53;;;2.53;;
70953;SDS011;58618;47.490;8.736;2022-07-17T15:09:26;4.95;;;2.13;;
70953;SDS011;58618;47.490;8.736;2022-07-17T15:12:13;3.50;;;2.38;;
70953;SDS011;58618;47.490;8.736;2022-07-17T15:15:01;3.03;;;2.20;;
70953;SDS011;58618;47.490;8.736;2022-07-17T15:17:48;4.32;;;2.40;;
70953;SDS011;58618;47.490;8.736;2022-07-17T15:20:36;4.47;;;2.30;;
70953;SDS011;58618;47.490;8.736;2022-07-17T15:23:24;3.30;;;2.45;;
70953;SDS011;58618;47.490;8.736;2022-07-17T15:26:12;3.95;;;2.25;;
70953;SDS011;58618;47.490;8.736;2022-07-17T15:28:59;5.07;;;2.10;;
70953;SDS011;58618;47.490;8.736;2022-07-17T15:31:47;3.35;;;2.15;;
70953;SDS011;58618;47.490;8.736;2022-07-17T15:34:34;2.22;;;2.00;;
70953;SDS011;58618;47.490;8.736;2022-07-17T15:37:23;4.13;;;2.17;;
70953;SDS011;58618;47.490;8.736;2022-07-17T15:40:12;3.35;;;2.25;;
70953;SDS011;58618;47.490;8.736;2022-07-17T15:42:59;4.90;;;2.10;;
70953;SDS011;58618;47.490;8.736;2022-07-17T15:45:46;2.47;;;2.10;;
70953;SDS011;58618;47.490;8.736;2022-07-17T15:48:34;3.28;;;2.10;;
70953;SDS011;58618;47.490;8.736;2022-07-17T15:51:21;4.55;;;2.30;;
70953;SDS011;58618;47.490;8.736;2022-07-17T15:54:08;2.20;;;1.90;;
70953;SDS011;58618;47.490;8.736;2022-07-17T15:56:57;3.30;;;1.97;;
70953;SDS011;58618;47.490;8.736;2022-07-17T15:59:44;4.50;;;2.20;;
70953;SDS011;58618;47.490;8.736;2022-07-17T16:02:32;4.55;;;2.10;;
70953;SDS011;58618;47.490;8.736;2022-07-17T16:05:19;2.75;;;2.20;;
70953;SDS011;58618;47.490;8.736;2022-07-17T16:08:07;4.03;;;2.30;;
70953;SDS011;58618;47.490;8.736;2022-07-17T16:10:54;3.00;;;2.50;;
70953;SDS011;58618;47.490;8.736;2022-07-17T16:13:43;3.03;;;2.17;;
70953;SDS011;58618;47.490;8.736;2022-07-17T16:16:30;2.85;;;2.35;;
70953;SDS011;58618;47.490;8.736;2022-07-17T16:19:18;5.35;;;2.20;;
70953;SDS011;58618;47.490;8.736;2022-07-17T16:22:07;2.58;;;2.08;;
70953;SDS011;58618;47.490;8.736;2022-07-17T16:24:54;3.20;;;2.30;;
70953;SDS011;58618;47.490;8.736;2022-07-17T16:27:41;5.35;;;2.10;;
70953;SDS011;58618;47.490;8.736;2022-07-17T16:30:30;3.25;;;2.05;;
70953;SDS011;58618;47.490;8.736;2022-07-17T16:33:17;2.78;;;1.98;;
70953;SDS011;58618;47.490;8.736;2022-07-17T16:36:05;2.75;;;2.10;;
70953;SDS011;58618;47.490;8.736;2022-07-17T16:38:52;3.33;;;2.17;;
70953;SDS011;58618;47.490;8.736;2022-07-17T16:41:40;2.60;;;1.88;;
70953;SDS011;58618;47.490;8.736;2022-07-17T16:44:27;3.70;;;2.08;;
70953;SDS011;58618;47.490;8.736;2022-07-17T16:47:16;3.03;;;2.20;;
70953;SDS011;58618;47.490;8.736;2022-07-17T16:50:04;5.28;;;2.03;;
70953;SDS011;58618;47.490;8.736;2022-07-17T16:52:52;2.47;;;1.90;;